sensor_id;sensor_type;location;lat;lon;timestamp;pressure;altitude;pressure_sealevel;temperature;humidity
72612;BME280;60655;52.182;4.474;2023-03-19T00:01:16;101057.53;;;12.65;87.29
72612;BME280;60655;52.182;4.474;2023-03-19T00:03:17;101050.22;;;12.60;87.38
72612;BME280;60655;52.182;4.474;2023-03-19T00:05:18;101055.31;;;12.62;87.79
72612;BME280;60655;52.182;4.474;2023-03-19T00:07:19;101061.03;;;12.65;87.12
72612;BME280;60655;52.182;4.474;2023-03-19T00:09:20;101055.69;;;12.65;87.05
72612;BME280;60655;52.182;4.474;2023-03-19T00:11:21;101059.69;;;12.56;86.99
72612;BME280;60655;52.182;4.474;2023-03-19T00:13:22;101067.22;;;12.59;87.37
72612;BME280;60655;52.182;4.474;2023-03-19T00:15:23;101066.50;;;12.70;87.07
72612;BME280;60655;52.182;4.474;2023-03-19T00:17:24;101070.31;;;12.74;86.86
72612;BME280;60655;52.182;4.474;2023-03-19T00:19:25;101066.56;;;12.64;87.40
72612;BME280;60655;52.182;4.474;2023-03-19T00:21:26;101073.31;;;12.66;87.21
72612;BME280;60655;52.182;4.474;2023-03-19T00:23:27;101065.38;;;12.60;87.33
72612;BME280;60655;52.182;4.474;2023-03-19T00:25:28;101060.50;;;12.57;87.20
72612;BME280;60655;52.182;4.474;2023-03-19T00:27:29;101065.38;;;12.60;87.39
72612;BME280;60655;52.182;4.474;2023-03-19T00:29:30;101073.91;;;12.68;86.75
72612;BME280;60655;52.182;4.474;2023-03-19T00:31:31;101080.56;;;12.59;86.91
72612;BME280;60655;52.182;4.474;2023-03-19T00:33:32;101067.81;;;12.43;87.68
72612;BME280;60655;52.182;4.474;2023-03-19T00:35:33;101078.94;;;12.40;88.06
72612;BME280;60655;52.182;4.474;2023-03-19T00:37:35;101075.81;;;12.43;88.02
72612;BME280;60655;52.182;4.474;2023-03-19T00:39:37;101078.03;;;12.46;87.99
72612;BME280;60655;52.182;4.474;2023-03-19T00:41:38;101076.56;;;12.50;87.53
72612;BME280;60655;52.182;4.474;2023-03-19T00:43:51;101080.69;;;12.46;87.62
72612;BME280;60655;52.182;4.474;2023-03-19T00:45:53;101082.66;;;12.39;87.82
72612;BME280;60655;52.182;4.474;2023-03-19T00:47:54;101089.13;;;12.25;88.02
72612;BME280;60655;52.182;4.474;2023-03-19T00:49:55;101088.19;;;12.37;86.97
72612;BME280;60655;52.182;4.474;2023-03-19T00:51:56;101084.06;;;12.41;87.35
72612;BME280;60655;52.182;4.474;2023-03-19T00:53:57;101089.38;;;12.41;86.87
72612;BME280;60655;52.182;4.474;2023-03-19T00:55:58;101091.06;;;12.36;87.00
72612;BME280;60655;52.182;4.474;2023-03-19T00:57:59;101090.09;;;12.30;87.62
72612;BME280;60655;52.182;4.474;2023-03-19T01:00:00;101091.19;;;12.23;87.02
72612;BME280;60655;52.182;4.474;2023-03-19T01:02:02;101089.84;;;12.13;87.34
72612;BME280;60655;52.182;4.474;2023-03-19T01:04:03;101086.75;;;12.16;87.59
72612;BME280;60655;52.182;4.474;2023-03-19T01:06:05;101086.91;;;12.22;86.93
72612;BME280;60655;52.182;4.474;2023-03-19T01:08:06;101091.34;;;12.28;86.64
72612;BME280;60655;52.182;4.474;2023-03-19T01:10:07;101086.53;;;12.18;86.62
72612;BME280;60655;52.182;4.474;2023-03-19T01:12:09;101075.91;;;11.93;86.86
72612;BME280;60655;52.182;4.474;2023-03-19T01:14:10;101090.25;;;11.92;87.12
72612;BME280;60655;52.182;4.474;2023-03-19T01:16:12;101087.53;;;11.74;86.54
72612;BME280;60655;52.182;4.474;2023-03-19T01:18:13;101095.06;;;11.83;86.84
72612;BME280;60655;52.182;4.474;2023-03-19T01:20:14;101086.28;;;11.83;86.23
72612;BME280;60655;52.182;4.474;2023-03-19T01:22:18;101093.19;;;11.84;86.66
72612;BME280;60655;52.182;4.474;2023-03-19T01:24:19;101098.84;;;11.94;86.55
72612;BME280;60655;52.182;4.474;2023-03-19T01:26:20;101106.59;;;11.71;86.62
72612;BME280;60655;52.182;4.474;2023-03-19T01:28:21;101101.53;;;11.63;87.40
72612;BME280;60655;52.182;4.474;2023-03-19T01:30:22;101109.25;;;11.71;86.51
72612;BME280;60655;52.182;4.474;2023-03-19T01:32:23;101087.72;;;11.79;86.08
72612;BME280;60655;52.182;4.474;2023-03-19T01:34:24;101099.63;;;11.70;85.86
72612;BME280;60655;52.182;4.474;2023-03-19T01:36:26;101097.34;;;11.48;86.17
72612;BME280;60655;52.182;4.474;2023-03-19T01:38:27;101100.75;;;11.56;86.21
72612;BME280;60655;52.182;4.474;2023-03-19T01:40:28;101089.97;;;11.50;84.87
72612;BME280;60655;52.182;4.474;2023-03-19T01:42:31;101088.06;;;11.58;85.12
72612;BME280;60655;52.182;4.474;2023-03-19T01:44:35;101094.19;;;11.58;84.41
72612;BME280;60655;52.182;4.474;2023-03-19T01:46:37;101099.63;;;11.45;84.73
72612;BME280;60655;52.182;4.474;2023-03-19T01:48:45;101102.28;;;11.13;85.04
72612;BME280;60655;52.182;4.474;2023-03-19T01:50:47;101093.34;;;11.33;84.86
72612;BME280;60655;52.182;4.474;2023-03-19T01:52:50;101098.81;;;11.44;85.19
72612;BME280;60655;52.182;4.474;2023-03-19T01:54:52;101102.28;;;11.45;84.65
72612;BME280;60655;52.182;4.474;2023-03-19T01:57:00;101099.66;;;11.38;85.04
72612;BME280;60655;52.182;4.474;2023-03-19T01:59:45;101089.66;;;11.34;84.75
72612;BME280;60655;52.182;4.474;2023-03-19T02:02:06;101099.16;;;11.23;84.38
72612;BME280;60655;52.182;4.474;2023-03-19T02:04:09;101098.63;;;11.08;84.92
72612;BME280;60655;52.182;4.474;2023-03-19T02:06:11;101104.16;;;11.00;85.51
72612;BME280;60655;52.182;4.474;2023-03-19T02:08:15;101110.34;;;10.94;85.71
72612;BME280;60655;52.182;4.474;2023-03-19T02:10:18;101105.06;;;10.87;85.63
72612;BME280;60655;52.182;4.474;2023-03-19T02:12:20;101098.69;;;10.95;85.97
72612;BME280;60655;52.182;4.474;2023-03-19T02:14:21;101102.38;;;10.94;85.78
72612;BME280;60655;52.182;4.474;2023-03-19T02:16:23;101098.19;;;11.11;85.65
72612;BME280;60655;52.182;4.474;2023-03-19T02:18:24;101102.94;;;11.02;85.54
72612;BME280;60655;52.182;4.474;2023-03-19T02:20:50;101104.13;;;11.06;85.46
72612;BME280;60655;52.182;4.474;2023-03-19T02:22:56;101099.25;;;11.03;85.60
72612;BME280;60655;52.182;4.474;2023-03-19T02:25:02;101094.75;;;11.04;85.38
72612;BME280;60655;52.182;4.474;2023-03-19T02:27:06;101094.41;;;10.94;85.54
72612;BME280;60655;52.182;4.474;2023-03-19T02:29:08;101099.75;;;10.80;86.31
72612;BME280;60655;52.182;4.474;2023-03-19T02:31:10;101111.19;;;10.88;86.17
72612;BME280;60655;52.182;4.474;2023-03-19T02:33:13;101105.66;;;10.89;86.13
72612;BME280;60655;52.182;4.474;2023-03-19T02:35:15;101106.28;;;10.91;85.75
72612;BME280;60655;52.182;4.474;2023-03-19T02:37:20;101103.69;;;10.71;85.88
72612;BME280;60655;52.182;4.474;2023-03-19T02:40:03;101096.78;;;10.64;86.38
72612;BME280;60655;52.182;4.474;2023-03-19T02:41:54;101111.41;;;10.86;86.66
72612;BME280;60655;52.182;4.474;2023-03-19T02:43:58;101103.25;;;10.81;86.23
72612;BME280;60655;52.182;4.474;2023-03-19T02:46:03;101116.34;;;10.69;86.27
72612;BME280;60655;52.182;4.474;2023-03-19T02:48:05;101112.66;;;10.70;86.71
72612;BME280;60655;52.182;4.474;2023-03-19T02:50:08;101119.41;;;10.73;86.74
72612;BME280;60655;52.182;4.474;2023-03-19T02:52:09;101119.59;;;10.78;86.67
72612;BME280;60655;52.182;4.474;2023-03-19T02:54:10;101117.56;;;10.80;87.23
72612;BME280;60655;52.182;4.474;2023-03-19T02:56:11;101116.09;;;10.84;86.57
72612;BME280;60655;52.182;4.474;2023-03-19T02:58:12;101122.47;;;10.70;87.33
72612;BME280;60655;52.182;4.474;2023-03-19T03:00:14;101112.06;;;10.68;87.90
72612;BME280;60655;52.182;4.474;2023-03-19T03:02:16;101116.81;;;10.66;87.80
72612;BME280;60655;52.182;4.474;2023-03-19T03:04:17;101103.06;;;10.69;87.47
72612;BME280;60655;52.182;4.474;2023-03-19T03:06:18;101113.25;;;10.79;87.76
72612;BME280;60655;52.182;4.474;2023-03-19T03:08:19;101110.56;;;10.92;87.32
72612;BME280;60655;52.182;4.474;2023-03-19T03:10:20;101110.56;;;10.92;87.36
72612;BME280;60655;52.182;4.474;2023-03-19T03:12:21;101107.63;;;11.07;87.11
72612;BME280;60655;52.182;4.474;2023-03-19T03:14:22;101104.38;;;10.98;86.67
72612;BME280;60655;52.182;4.474;2023-03-19T03:16:24;101107.19;;;11.10;87.24
72612;BME280;60655;52.182;4.474;2023-03-19T03:18:25;101099.25;;;11.03;85.93
72612;BME280;60655;52.182;4.474;2023-03-19T03:20:27;101109.47;;;11.06;86.06
72612;BME280;60655;52.182;4.474;2023-03-19T03:22:27;101097.41;;;11.04;86.09
72612;BME280;60655;52.182;4.474;2023-03-19T03:24:28;101104.78;;;11.02;85.60
72612;BME280;60655;52.182;4.474;2023-03-19T03:26:29;101110.16;;;10.89;85.59
72612;BME280;60655;52.182;4.474;2023-03-19T03:28:30;101109.34;;;10.88;86.63
72612;BME280;60655;52.182;4.474;2023-03-19T03:30:32;101108.50;;;10.94;85.91
72612;BME280;60655;52.182;4.474;2023-03-19T03:32:34;101111.59;;;10.85;86.00
72612;BME280;60655;52.182;4.474;2023-03-19T03:34:35;101110.47;;;10.67;86.31
72612;BME280;60655;52.182;4.474;2023-03-19T03:36:36;101101.19;;;10.83;86.46
72612;BME280;60655;52.182;4.474;2023-03-19T03:38:37;101105.69;;;10.82;87.11
72612;BME280;60655;52.182;4.474;2023-03-19T03:40:38;101107.81;;;10.61;87.06
72612;BME280;60655;52.182;4.474;2023-03-19T03:42:39;101110.06;;;10.64;87.56
72612;BME280;60655;52.182;4.474;2023-03-19T03:44:40;101114.88;;;10.87;87.33
72612;BME280;60655;52.182;4.474;2023-03-19T03:46:41;101116.69;;;10.93;85.87
72612;BME280;60655;52.182;4.474;2023-03-19T03:48:43;101116.53;;;10.74;86.75
72612;BME280;60655;52.182;4.474;2023-03-19T03:50:44;101119.47;;;10.66;86.22
72612;BME280;60655;52.182;4.474;2023-03-19T03:52:45;101116.34;;;10.69;86.43
72612;BME280;60655;52.182;4.474;2023-03-19T03:54:47;101115.19;;;10.52;86.54
72612;BME280;60655;52.182;4.474;2023-03-19T03:56:48;101123.34;;;10.64;86.97
72612;BME280;60655;52.182;4.474;2023-03-19T03:58:50;101120.84;;;10.69;86.80
72612;BME280;60655;52.182;4.474;2023-03-19T04:00:51;101116.41;;;10.63;87.25
72612;BME280;60655;52.182;4.474;2023-03-19T04:02:52;101126.41;;;10.61;87.54
72612;BME280;60655;52.182;4.474;2023-03-19T04:04:53;101124.19;;;10.51;87.43
72612;BME280;60655;52.182;4.474;2023-03-19T04:06:54;101125.13;;;10.70;86.90
72612;BME280;60655;52.182;4.474;2023-03-19T04:08:55;101122.69;;;10.68;87.12
72612;BME280;60655;52.182;4.474;2023-03-19T04:10:56;101130.31;;;10.52;87.85
72612;BME280;60655;52.182;4.474;2023-03-19T04:12:58;101141.75;;;10.52;88.00
72612;BME280;60655;52.182;4.474;2023-03-19T04:14:59;101142.56;;;10.59;87.68
72612;BME280;60655;52.182;4.474;2023-03-19T04:17:00;101137.06;;;10.54;87.26
72612;BME280;60655;52.182;4.474;2023-03-19T04:19:01;101146.25;;;10.52;87.54
72612;BME280;60655;52.182;4.474;2023-03-19T04:21:04;101129.28;;;10.53;88.32
72612;BME280;60655;52.182;4.474;2023-03-19T04:23:05;101136.25;;;10.54;88.09
72612;BME280;60655;52.182;4.474;2023-03-19T04:25:06;101120.28;;;10.54;86.98
72612;BME280;60655;52.182;4.474;2023-03-19T04:27:10;101129.09;;;10.54;87.09
72612;BME280;60655;52.182;4.474;2023-03-19T04:29:11;101139.31;;;10.57;87.61
72612;BME280;60655;52.182;4.474;2023-03-19T04:31:12;101138.06;;;10.53;87.79
72612;BME280;60655;52.182;4.474;2023-03-19T04:33:13;101133.38;;;10.48;87.77
72612;BME280;60655;52.182;4.474;2023-03-19T04:35:14;101144.19;;;10.60;87.83
72612;BME280;60655;52.182;4.474;2023-03-19T04:37:15;101127.44;;;10.60;87.17
72612;BME280;60655;52.182;4.474;2023-03-19T04:39:17;101147.66;;;10.67;87.02
72612;BME280;60655;52.182;4.474;2023-03-19T04:41:18;101148.28;;;10.63;87.30
72612;BME280;60655;52.182;4.474;2023-03-19T04:43:20;101155.22;;;10.64;87.18
72612;BME280;60655;52.182;4.474;2023-03-19T04:45:21;101157.69;;;10.65;87.16
72612;BME280;60655;52.182;4.474;2023-03-19T04:47:22;101159.94;;;10.48;87.26
72612;BME280;60655;52.182;4.474;2023-03-19T04:49:23;101159.16;;;10.35;87.94
72612;BME280;60655;52.182;4.474;2023-03-19T04:51:26;101166.47;;;10.46;87.48
72612;BME280;60655;52.182;4.474;2023-03-19T04:53:27;101164.22;;;10.49;87.57
72612;BME280;60655;52.182;4.474;2023-03-19T04:55:29;101168.94;;;10.54;88.57
72612;BME280;60655;52.182;4.474;2023-03-19T04:57:30;101172.19;;;10.49;87.60
72612;BME280;60655;52.182;4.474;2023-03-19T04:59:31;101155.28;;;10.24;87.33
72612;BME280;60655;52.182;4.474;2023-03-19T05:01:32;101162.84;;;10.27;87.62
72612;BME280;60655;52.182;4.474;2023-03-19T05:03:33;101170.16;;;10.45;88.38
72612;BME280;60655;52.182;4.474;2023-03-19T05:05:34;101178.94;;;10.45;88.17
72612;BME280;60655;52.182;4.474;2023-03-19T05:07:36;101170.78;;;10.40;88.26
72612;BME280;60655;52.182;4.474;2023-03-19T05:09:37;101167.75;;;10.37;88.26
72612;BME280;60655;52.182;4.474;2023-03-19T05:11:38;101168.78;;;10.36;87.63
72612;BME280;60655;52.182;4.474;2023-03-19T05:13:39;101132.19;;;10.18;88.17
72612;BME280;60655;52.182;4.474;2023-03-19T05:15:44;101189.81;;;10.37;87.69
72612;BME280;60655;52.182;4.474;2023-03-19T05:17:45;101178.78;;;10.27;88.43
72612;BME280;60655;52.182;4.474;2023-03-19T05:19:50;101180.63;;;10.33;88.36
72612;BME280;60655;52.182;4.474;2023-03-19T05:21:52;101197.13;;;10.42;88.58
72612;BME280;60655;52.182;4.474;2023-03-19T05:23:53;101195.91;;;10.51;88.53
72612;BME280;60655;52.182;4.474;2023-03-19T05:25:57;101205.75;;;10.37;87.55
72612;BME280;60655;52.182;4.474;2023-03-19T05:27:58;101202.88;;;10.39;88.08
72612;BME280;60655;52.182;4.474;2023-03-19T05:29:59;101203.69;;;10.33;88.10
72612;BME280;60655;52.182;4.474;2023-03-19T05:32:01;101199.41;;;10.32;88.65
72612;BME280;60655;52.182;4.474;2023-03-19T05:34:03;101212.06;;;10.23;88.52
72612;BME280;60655;52.182;4.474;2023-03-19T05:36:04;101209.81;;;10.20;88.67
72612;BME280;60655;52.182;4.474;2023-03-19T05:38:05;101196.34;;;10.22;88.88
72612;BME280;60655;52.182;4.474;2023-03-19T05:40:08;101208.78;;;10.21;89.07
72612;BME280;60655;52.182;4.474;2023-03-19T05:42:09;101207.94;;;10.14;89.27
72612;BME280;60655;52.182;4.474;2023-03-19T05:44:10;101204.88;;;10.17;89.62
72612;BME280;60655;52.182;4.474;2023-03-19T05:46:11;101215.09;;;10.00;89.04
72612;BME280;60655;52.182;4.474;2023-03-19T05:48:12;101219.13;;;9.83;90.55
72612;BME280;60655;52.182;4.474;2023-03-19T05:50:15;101215.09;;;10.00;89.74
72612;BME280;60655;52.182;4.474;2023-03-19T05:52:16;101222.66;;;10.10;90.26
72612;BME280;60655;52.182;4.474;2023-03-19T05:54:17;101221.22;;;10.07;89.21
72612;BME280;60655;52.182;4.474;2023-03-19T05:56:18;101213.88;;;10.03;89.11
72612;BME280;60655;52.182;4.474;2023-03-19T05:58:19;101222.03;;;10.14;89.24
72612;BME280;60655;52.182;4.474;2023-03-19T06:00:20;101212.06;;;10.23;89.62
72612;BME280;60655;52.182;4.474;2023-03-19T06:02:21;101214.31;;;10.26;88.85
72612;BME280;60655;52.182;4.474;2023-03-19T06:04:22;101212.88;;;10.30;88.19
72612;BME280;60655;52.182;4.474;2023-03-19T06:06:23;101208.59;;;10.23;88.66
72612;BME280;60655;52.182;4.474;2023-03-19T06:08:24;101215.75;;;10.22;88.05
72612;BME280;60655;52.182;4.474;2023-03-19T06:10:25;101230.03;;;10.28;88.27
72612;BME280;60655;52.182;4.474;2023-03-19T06:12:27;101215.13;;;10.20;87.79
72612;BME280;60655;52.182;4.474;2023-03-19T06:14:28;101221.84;;;10.09;88.42
72612;BME280;60655;52.182;4.474;2023-03-19T06:16:29;101224.06;;;10.12;88.88
72612;BME280;60655;52.182;4.474;2023-03-19T06:18:30;101232.03;;;10.12;89.05
72612;BME280;60655;52.182;4.474;2023-03-19T06:20:31;101243.91;;;10.10;90.24
72612;BME280;60655;52.182;4.474;2023-03-19T06:22:32;101236.13;;;10.08;89.39
72612;BME280;60655;52.182;4.474;2023-03-19T06:24:33;101238.78;;;10.08;89.86
72612;BME280;60655;52.182;4.474;2023-03-19T06:26:34;101246.75;;;10.02;89.55
72612;BME280;60655;52.182;4.474;2023-03-19T06:28:37;101244.50;;;10.05;89.96
72612;BME280;60655;52.182;4.474;2023-03-19T06:30:38;101250.00;;;10.04;89.94
72612;BME280;60655;52.182;4.474;2023-03-19T06:32:39;101254.50;;;10.16;90.07
72612;BME280;60655;52.182;4.474;2023-03-19T06:34:40;101233.06;;;10.11;90.32
72612;BME280;60655;52.182;4.474;2023-03-19T06:36:41;101263.53;;;10.29;89.60
72612;BME280;60655;52.182;4.474;2023-03-19T06:38:42;101241.84;;;10.12;90.15
72612;BME280;60655;52.182;4.474;2023-03-19T06:40:43;101268.47;;;10.38;89.71
72612;BME280;60655;52.182;4.474;2023-03-19T06:42:45;101267.81;;;10.43;89.42
72612;BME280;60655;52.182;4.474;2023-03-19T06:45:06;101278.25;;;10.38;88.71
72612;BME280;60655;52.182;4.474;2023-03-19T06:47:08;101280.09;;;10.51;89.27
72612;BME280;60655;52.182;4.474;2023-03-19T06:49:09;101259.66;;;10.44;88.16
72612;BME280;60655;52.182;4.474;2023-03-19T06:51:10;101278.66;;;10.48;88.38
72612;BME280;60655;52.182;4.474;2023-03-19T06:53:12;101268.03;;;10.35;88.80
72612;BME280;60655;52.182;4.474;2023-03-19T06:55:13;101271.50;;;10.42;88.69
72612;BME280;60655;52.182;4.474;2023-03-19T06:57:14;101285.41;;;10.37;89.04
72612;BME280;60655;52.182;4.474;2023-03-19T06:59:15;101264.34;;;10.23;89.56
72612;BME280;60655;52.182;4.474;2023-03-19T07:01:17;101288.06;;;10.44;89.34
72612;BME280;60655;52.182;4.474;2023-03-19T07:03:18;101280.09;;;10.51;89.25
72612;BME280;60655;52.182;4.474;2023-03-19T07:05:19;101281.13;;;10.56;89.01
72612;BME280;60655;52.182;4.474;2023-03-19T07:07:20;101292.97;;;10.60;88.90
72612;BME280;60655;52.182;4.474;2023-03-19T07:09:21;101291.34;;;10.66;88.54
72612;BME280;60655;52.182;4.474;2023-03-19T07:11:23;101298.28;;;10.67;88.05
72612;BME280;60655;52.182;4.474;2023-03-19T07:13:24;101293.78;;;10.67;88.41
72612;BME280;60655;52.182;4.474;2023-03-19T07:15:25;101278.25;;;10.64;88.49
72612;BME280;60655;52.182;4.474;2023-03-19T07:17:26;101293.56;;;10.69;87.64
72612;BME280;60655;52.182;4.474;2023-03-19T07:19:27;101292.38;;;10.65;87.97
72612;BME280;60655;52.182;4.474;2023-03-19T07:21:28;101299.09;;;10.67;87.87
72612;BME280;60655;52.182;4.474;2023-03-19T07:23:29;101305.22;;;10.55;88.64
72612;BME280;60655;52.182;4.474;2023-03-19T07:25:30;101302.56;;;10.61;88.61
72612;BME280;60655;52.182;4.474;2023-03-19T07:27:31;101314.44;;;10.59;87.82
72612;BME280;60655;52.182;4.474;2023-03-19T07:29:32;101305.44;;;10.53;88.35
72612;BME280;60655;52.182;4.474;2023-03-19T07:31:33;101319.13;;;10.50;88.87
72612;BME280;60655;52.182;4.474;2023-03-19T07:33:34;101310.75;;;10.53;88.65
72612;BME280;60655;52.182;4.474;2023-03-19T07:35:35;101310.72;;;10.46;88.38
72612;BME280;60655;52.182;4.474;2023-03-19T07:37:36;101321.38;;;10.60;89.21
72612;BME280;60655;52.182;4.474;2023-03-19T07:39:37;101318.28;;;10.49;89.34
72612;BME280;60655;52.182;4.474;2023-03-19T07:41:38;101317.09;;;10.39;89.55
72612;BME280;60655;52.182;4.474;2023-03-19T07:43:39;101309.09;;;10.45;89.16
72612;BME280;60655;52.182;4.474;2023-03-19T07:45:40;101319.94;;;10.51;88.84
72612;BME280;60655;52.182;4.474;2023-03-19T07:47:41;101318.09;;;10.58;88.82
72612;BME280;60655;52.182;4.474;2023-03-19T07:49:42;101335.66;;;10.52;88.07
72612;BME280;60655;52.182;4.474;2023-03-19T07:51:43;101335.47;;;10.60;88.62
72612;BME280;60655;52.182;4.474;2023-03-19T07:53:44;101333.84;;;10.59;88.95
72612;BME280;60655;52.182;4.474;2023-03-19T07:55:46;101339.16;;;10.53;89.05
72612;BME280;60655;52.182;4.474;2023-03-19T07:57:47;101333.84;;;10.59;88.86
72612;BME280;60655;52.182;4.474;2023-03-19T07:59:48;101331.59;;;10.56;88.57
72612;BME280;60655;52.182;4.474;2023-03-19T08:01:49;101339.94;;;10.40;89.20
72612;BME280;60655;52.182;4.474;2023-03-19T08:03:50;101344.44;;;10.46;89.54
72612;BME280;60655;52.182;4.474;2023-03-19T08:05:51;101340.34;;;10.43;89.48
72612;BME280;60655;52.182;4.474;2023-03-19T08:07:52;101343.66;;;10.59;89.31
72612;BME280;60655;52.182;4.474;2023-03-19T08:09:53;101347.13;;;10.53;89.41
72612;BME280;60655;52.182;4.474;2023-03-19T08:11:54;101355.09;;;10.59;89.38
72612;BME280;60655;52.182;4.474;2023-03-19T08:13:55;101353.88;;;10.62;89.55
72612;BME280;60655;52.182;4.474;2023-03-19T08:15:56;101356.94;;;10.78;88.74
72612;BME280;60655;52.182;4.474;2023-03-19T08:17:58;101352.44;;;10.72;88.21
72612;BME280;60655;52.182;4.474;2023-03-19T08:20:00;101367.56;;;10.72;88.99
72612;BME280;60655;52.182;4.474;2023-03-19T08:22:01;101366.34;;;10.74;88.73
72612;BME280;60655;52.182;4.474;2023-03-19T08:24:02;101362.25;;;10.65;88.38
72612;BME280;60655;52.182;4.474;2023-03-19T08:26:03;101373.91;;;10.64;88.94
72612;BME280;60655;52.182;4.474;2023-03-19T08:28:04;101373.28;;;10.75;89.42
72612;BME280;60655;52.182;4.474;2023-03-19T08:30:06;101371.84;;;10.79;88.82
72612;BME280;60655;52.182;4.474;2023-03-19T08:32:08;101371.25;;;10.84;88.24
72612;BME280;60655;52.182;4.474;2023-03-19T08:34:09;101379.63;;;10.88;88.76
72612;BME280;60655;52.182;4.474;2023-03-19T08:36:12;101377.81;;;10.88;89.23
72612;BME280;60655;52.182;4.474;2023-03-19T08:38:13;101382.72;;;10.91;88.39
72612;BME280;60655;52.182;4.474;2023-03-19T08:40:15;101372.28;;;10.83;88.98
72612;BME280;60655;52.182;4.474;2023-03-19T08:42:16;101389.03;;;10.90;88.46
72612;BME280;60655;52.182;4.474;2023-03-19T08:44:16;101382.69;;;11.04;87.93
72612;BME280;60655;52.182;4.474;2023-03-19T08:46:18;101387.19;;;11.10;87.51
72612;BME280;60655;52.182;4.474;2023-03-19T08:48:18;101400.47;;;11.04;88.38
72612;BME280;60655;52.182;4.474;2023-03-19T08:50:20;101385.97;;;10.93;88.42
72612;BME280;60655;52.182;4.474;2023-03-19T08:52:21;101402.53;;;11.15;87.55
72612;BME280;60655;52.182;4.474;2023-03-19T08:54:22;101401.31;;;11.11;87.01
72612;BME280;60655;52.182;4.474;2023-03-19T08:56:23;101390.88;;;10.90;87.32
72612;BME280;60655;52.182;4.474;2023-03-19T08:58:24;101403.13;;;11.04;88.15
72612;BME280;60655;52.182;4.474;2023-03-19T09:00:26;101395.16;;;10.84;88.21
72612;BME280;60655;52.182;4.474;2023-03-19T09:02:27;101403.75;;;10.99;88.16
72612;BME280;60655;52.182;4.474;2023-03-19T09:04:28;101403.34;;;11.09;88.17
72612;BME280;60655;52.182;4.474;2023-03-19T09:06:29;101404.97;;;11.10;87.90
72612;BME280;60655;52.182;4.474;2023-03-19T09:08:31;101418.88;;;11.12;87.96
72612;BME280;60655;52.182;4.474;2023-03-19T09:10:32;101409.69;;;11.08;87.66
72612;BME280;60655;52.182;4.474;2023-03-19T09:12:33;101406.22;;;11.14;88.09
72612;BME280;60655;52.182;4.474;2023-03-19T09:14:35;101417.25;;;11.24;87.74
72612;BME280;60655;52.182;4.474;2023-03-19T09:16:36;101421.13;;;11.02;87.20
72612;BME280;60655;52.182;4.474;2023-03-19T09:18:37;101418.88;;;11.12;87.78
72612;BME280;60655;52.182;4.474;2023-03-19T09:20:38;101405.59;;;11.12;88.12
72612;BME280;60655;52.182;4.474;2023-03-19T09:22:39;101424.22;;;11.25;87.71
72612;BME280;60655;52.182;4.474;2023-03-19T09:24:40;101419.72;;;11.19;87.46
72612;BME280;60655;52.182;4.474;2023-03-19T09:26:41;101413.34;;;11.27;87.46
72612;BME280;60655;52.182;4.474;2023-03-19T09:28:42;101423.56;;;11.36;86.89
72612;BME280;60655;52.182;4.474;2023-03-19T09:30:47;101413.13;;;11.28;87.06
72612;BME280;60655;52.182;4.474;2023-03-19T09:32:48;101432.16;;;11.38;86.81
72612;BME280;60655;52.182;4.474;2023-03-19T09:34:49;101430.31;;;11.32;86.90
72612;BME280;60655;52.182;4.474;2023-03-19T09:36:50;101433.41;;;11.23;86.98
72612;BME280;60655;52.182;4.474;2023-03-19T09:38:51;101437.47;;;11.38;87.08
72612;BME280;60655;52.182;4.474;2023-03-19T09:43:25;101443.59;;;11.59;86.23
72612;BME280;60655;52.182;4.474;2023-03-19T09:45:30;101440.09;;;11.58;86.13
72612;BME280;60655;52.182;4.474;2023-03-19T09:47:33;101446.69;;;11.49;85.95
72612;BME280;60655;52.182;4.474;2023-03-19T09:49:41;101449.75;;;11.53;86.43
72612;BME280;60655;52.182;4.474;2023-03-19T09:51:49;101448.34;;;11.50;86.50
72612;BME280;60655;52.182;4.474;2023-03-19T09:53:57;101454.47;;;11.50;85.88
72612;BME280;60655;52.182;4.474;2023-03-19T09:56:01;101457.53;;;11.54;86.63
72612;BME280;60655;52.182;4.474;2023-03-19T09:58:12;101459.38;;;11.54;86.34
72612;BME280;60655;52.182;4.474;2023-03-19T10:00:25;101462.22;;;11.59;86.67
72612;BME280;60655;52.182;4.474;2023-03-19T10:02:38;101464.06;;;11.58;86.52
72612;BME280;60655;52.182;4.474;2023-03-19T10:07:11;101463.03;;;11.59;85.88
72612;BME280;60655;52.182;4.474;2023-03-19T10:13:59;101481.88;;;11.11;87.62
72612;BME280;60655;52.182;4.474;2023-03-19T10:16:11;101476.97;;;11.28;87.76
72612;BME280;60655;52.182;4.474;2023-03-19T10:18:24;101474.34;;;11.22;87.66
72612;BME280;60655;52.182;4.474;2023-03-19T10:20:51;101479.03;;;11.13;88.08
72612;BME280;60655;52.182;4.474;2023-03-19T10:25:26;101479.41;;;10.83;88.26
72612;BME280;60655;52.182;4.474;2023-03-19T10:27:29;101478.38;;;10.98;87.70
72612;BME280;60655;52.182;4.474;2023-03-19T10:29:30;101485.56;;;11.04;87.84
72612;BME280;60655;52.182;4.474;2023-03-19T10:34:29;101487.81;;;10.94;89.38
72612;BME280;60655;52.182;4.474;2023-03-19T10:36:34;101470.81;;;10.88;88.65
72612;BME280;60655;52.182;4.474;2023-03-19T10:38:40;101487.59;;;10.89;88.76
72612;BME280;60655;52.182;4.474;2023-03-19T10:41:10;101479.41;;;10.83;89.41
72612;BME280;60655;52.182;4.474;2023-03-19T10:43:19;101475.53;;;11.06;88.90
72612;BME280;60655;52.182;4.474;2023-03-19T10:47:37;101491.31;;;11.47;88.12
72612;BME280;60655;52.182;4.474;2023-03-19T10:49:38;101488.25;;;11.50;87.49
72612;BME280;60655;52.182;4.474;2023-03-19T10:51:42;101486.81;;;11.34;86.72
72612;BME280;60655;52.182;4.474;2023-03-19T10:53:44;101496.41;;;11.55;87.27
72612;BME280;60655;52.182;4.474;2023-03-19T10:55:50;101501.09;;;11.66;86.40
72612;BME280;60655;52.182;4.474;2023-03-19T10:58:00;101496.00;;;11.65;86.73